Round Lake, New York
Current Conditions -  °F | °C
As of 2:51 AM on Friday 21 Nov 2014 (Local Time) from KALB Reporting Station
Clear Clear  
Wind Chill: 21°   Ceiling: Unl
Heat Index: 21°   Visibility: 10mi
Dew Point: 13°   Wind: 3mph
Humidity: 71%   Direction: 250°WSW
Pressure: 30"   Gusts: NA
Location:  42.94°N, 73.79°W
Report Text: KALB 210751Z 25003KT 10SM CLR M06/M11 A3000 RMK AO2 SLP164 T10611106
Loading
Personal Weather Stations






























Interactive Weather Map New forecast layout! Learn more

10-Day Weather Forecast

Advertisements
Track Severe Weather on mobile